createdAt,value
2018-08-25T00:00:26.106Z,59.11
2018-08-25T00:01:26.079Z,59.11
2018-08-25T00:02:26.058Z,58.50
2018-08-25T00:03:26.054Z,58.60
2018-08-25T00:04:26.037Z,58.60
2018-08-25T00:05:26.055Z,58.50
2018-08-25T00:06:26.016Z,58.70
2018-08-25T00:07:26.006Z,58.78
2018-08-25T00:08:25.996Z,57.97
2018-08-25T00:09:25.981Z,58.80
2018-08-25T00:10:25.996Z,58.91
2018-08-25T00:11:25.963Z,58.67
2018-08-25T00:12:25.945Z,58.80
2018-08-25T00:13:25.939Z,59.82
2018-08-25T00:14:25.922Z,60.02
2018-08-25T00:15:25.932Z,59.62
2018-08-25T00:16:25.906Z,58.50
2018-08-25T00:17:25.885Z,59.72
2018-08-25T00:18:25.883Z,58.80
2018-08-25T00:19:25.862Z,58.91
2018-08-25T00:20:25.876Z,59.62
2018-08-25T00:21:25.847Z,58.91
2018-08-25T00:22:25.830Z,58.80
2018-08-25T00:23:25.819Z,58.50
2018-08-25T00:24:25.812Z,59.62
2018-08-25T00:25:25.823Z,59.11
2018-08-25T00:26:25.785Z,59.11
2018-08-25T00:27:25.777Z,58.60
2018-08-25T00:28:25.757Z,59.82
2018-08-25T00:29:25.754Z,58.40
2018-08-25T00:30:25.756Z,58.80
2018-08-25T00:31:25.722Z,58.67
2018-08-25T00:32:25.719Z,57.86
2018-08-25T00:33:25.700Z,58.09
2018-08-25T00:34:25.697Z,58.40
2018-08-25T00:35:25.702Z,58.40
2018-08-25T00:36:25.664Z,57.99
2018-08-25T00:37:25.654Z,58.09
2018-08-25T00:38:25.647Z,58.29
2018-08-25T00:39:25.630Z,58.20
2018-08-25T00:40:25.650Z,58.58
2018-08-25T00:41:25.606Z,59.52
2018-08-25T00:42:25.598Z,58.80
2018-08-25T00:43:25.589Z,58.40
2018-08-25T00:44:25.574Z,58.80
2018-08-25T00:45:25.591Z,59.21
2018-08-25T00:46:25.557Z,58.91
2018-08-25T00:47:25.539Z,59.72
2018-08-25T00:48:25.530Z,59.31
2018-08-25T00:49:25.522Z,59.72
2018-08-25T00:50:25.524Z,58.67
2018-08-25T00:51:25.499Z,60.22
2018-08-25T00:52:25.482Z,58.80
2018-08-25T00:53:25.466Z,59.41
2018-08-25T00:54:25.459Z,59.52
2018-08-25T00:55:25.483Z,59.31
2018-08-25T00:56:25.437Z,58.70
2018-08-25T00:57:25.447Z,58.91
2018-08-25T00:58:25.415Z,58.40
2018-08-25T00:59:25.553Z,59.01
2018-08-25T01:00:25.391Z,59.01
2018-08-25T01:01:25.406Z,58.67
2018-08-25T01:02:25.362Z,58.91
2018-08-25T01:03:25.350Z,59.11
2018-08-25T01:04:25.352Z,58.80
2018-08-25T01:05:25.362Z,59.21
2018-08-25T01:06:25.317Z,59.21
2018-08-25T01:07:25.313Z,59.01
2018-08-25T01:08:25.293Z,60.02
2018-08-25T01:09:25.291Z,59.72
2018-08-25T01:10:25.274Z,59.64
2018-08-25T01:11:25.285Z,60.33
2018-08-25T01:12:25.256Z,59.54
2018-08-25T01:13:25.239Z,59.41
2018-08-25T01:14:25.230Z,59.62
2018-08-25T01:15:25.214Z,59.72
2018-08-25T01:16:25.232Z,59.11
2018-08-25T01:17:25.187Z,59.21
2018-08-25T01:18:25.193Z,60.22
2018-08-25T01:19:25.167Z,59.62
2018-08-25T01:20:25.165Z,60.02
2018-08-25T01:21:25.168Z,59.64
2018-08-25T01:22:25.140Z,60.22
2018-08-25T01:23:25.128Z,60.22
2018-08-25T01:24:25.109Z,59.41
2018-08-25T01:25:25.135Z,59.92
2018-08-25T01:26:25.083Z,60.13
2018-08-25T01:27:25.077Z,60.22
2018-08-25T01:28:25.062Z,60.33
2018-08-25T01:29:25.054Z,60.13
2018-08-25T01:30:25.040Z,60.13
2018-08-25T01:31:25.048Z,60.22
2018-08-25T01:32:25.015Z,59.72
2018-08-25T01:33:25.006Z,60.22
2018-08-25T01:34:24.993Z,60.83
2018-08-25T01:35:24.991Z,60.94
2018-08-25T01:36:24.990Z,59.62
2018-08-25T01:37:24.957Z,59.62
2018-08-25T01:38:24.943Z,60.13
2018-08-25T01:39:24.933Z,59.92
2018-08-25T01:40:24.929Z,59.92
2018-08-25T01:41:24.938Z,60.63
2018-08-25T01:42:24.906Z,60.74
2018-08-25T01:43:24.889Z,59.31
2018-08-25T01:44:24.880Z,60.13
2018-08-25T01:45:24.865Z,59.82
2018-08-25T01:46:24.876Z,59.72
2018-08-25T01:47:24.848Z,60.22
2018-08-25T01:48:24.832Z,60.13
2018-08-25T01:49:24.818Z,60.36
2018-08-25T01:50:24.808Z,60.36
2018-08-25T01:51:24.814Z,60.53
2018-08-25T01:52:24.810Z,61.17
2018-08-25T01:53:24.772Z,60.76
2018-08-25T01:54:24.765Z,60.76
2018-08-25T01:55:24.747Z,60.56
2018-08-25T01:56:24.762Z,60.66
2018-08-25T01:57:24.725Z,60.86
2018-08-25T01:58:24.715Z,61.27
2018-08-25T01:59:24.704Z,60.97
2018-08-25T02:00:24.691Z,61.27
2018-08-25T02:01:24.703Z,61.27
2018-08-25T02:02:24.665Z,61.27
2018-08-25T02:03:24.657Z,61.27
2018-08-25T02:04:24.648Z,60.97
2018-08-25T02:05:24.634Z,60.97
2018-08-25T02:06:24.653Z,60.97
2018-08-25T02:07:24.613Z,61.37
2018-08-25T02:08:24.593Z,60.97
2018-08-25T02:09:24.584Z,60.76
2018-08-25T02:10:24.575Z,60.97
2018-08-25T02:11:24.596Z,60.56
2018-08-25T02:12:24.548Z,60.86
2018-08-25T02:13:24.534Z,60.97
2018-08-25T02:14:24.532Z,61.27
2018-08-25T02:15:24.515Z,60.94
2018-08-25T02:16:24.505Z,60.56
2018-08-25T02:17:24.524Z,61.17
2018-08-25T02:18:24.477Z,60.76
2018-08-25T02:19:24.469Z,61.24
2018-08-25T02:20:24.454Z,60.74
2018-08-25T02:21:24.453Z,61.37
2018-08-25T02:22:24.458Z,61.14
2018-08-25T02:23:24.420Z,61.07
2018-08-25T02:24:24.416Z,60.97
2018-08-25T02:25:24.399Z,61.07
2018-08-25T02:26:24.394Z,61.07
2018-08-25T02:27:24.404Z,61.07
2018-08-25T02:28:24.361Z,61.24
2018-08-25T02:29:24.361Z,61.44
2018-08-25T02:30:24.338Z,60.97
2018-08-25T02:31:24.334Z,61.24
2018-08-25T02:32:24.340Z,61.14
2018-08-25T02:33:24.308Z,60.94
2018-08-25T02:34:24.293Z,60.63
2018-08-25T02:35:24.285Z,61.04
2018-08-25T02:36:24.275Z,61.04
2018-08-25T02:37:24.280Z,61.14
2018-08-25T02:38:24.260Z,60.94
2018-08-25T02:39:24.235Z,61.04
2018-08-25T02:40:24.228Z,60.74
2018-08-25T02:41:24.215Z,60.83
2018-08-25T02:42:24.225Z,60.83
2018-08-25T02:43:24.186Z,60.94
2018-08-25T02:44:24.182Z,60.94
2018-08-25T02:45:24.168Z,60.94
2018-08-25T02:46:24.157Z,61.14
2018-08-25T02:47:24.166Z,61.85
2018-08-25T02:48:24.131Z,61.85
2018-08-25T02:49:24.125Z,61.85
2018-08-25T02:50:24.105Z,62.66
2018-08-25T02:51:24.100Z,64.39
2018-08-25T02:52:24.110Z,63.68
2018-08-25T02:53:24.075Z,64.73
2018-08-25T02:54:24.063Z,64.90
2018-08-25T02:55:24.045Z,66.55
2018-08-25T02:56:24.045Z,66.86
2018-08-25T02:57:24.044Z,68.82
2018-08-25T02:58:24.019Z,67.19
2018-08-25T02:59:24.004Z,67.19
2018-08-25T03:00:23.998Z,71.16
2018-08-25T03:01:23.985Z,70.48
2018-08-25T03:02:23.988Z,70.28
2018-08-25T03:03:23.957Z,69.87
2018-08-25T03:04:23.943Z,71.84
2018-08-25T03:05:23.929Z,71.53
2018-08-25T03:06:23.925Z,71.33
2018-08-25T03:07:23.936Z,70.62
2018-08-25T03:08:23.896Z,71.23
2018-08-25T03:09:23.881Z,71.43
2018-08-25T03:10:23.879Z,73.77
2018-08-25T03:11:23.860Z,71.33
2018-08-25T03:12:23.880Z,72.55
2018-08-25T03:13:23.842Z,71.47
2018-08-25T03:14:23.822Z,71.23
2018-08-25T03:15:23.816Z,72.38
2018-08-25T03:16:23.802Z,70.86
2018-08-25T03:17:23.814Z,70.92
2018-08-25T03:18:23.776Z,72.08
2018-08-25T03:19:23.765Z,71.06
2018-08-25T03:20:23.755Z,71.67
2018-08-25T03:21:23.740Z,69.84
2018-08-25T03:22:23.755Z,69.93
2018-08-25T03:23:23.719Z,70.10
2018-08-25T03:24:23.706Z,70.92
2018-08-25T03:25:23.697Z,70.65
2018-08-25T03:26:23.676Z,70.82
2018-08-25T03:27:23.671Z,70.86
2018-08-25T03:28:23.679Z,70.14
2018-08-25T03:29:23.639Z,71.56
2018-08-25T03:30:23.637Z,70.95
2018-08-25T03:31:23.619Z,70.95
2018-08-25T03:32:23.609Z,71.47
2018-08-25T03:33:23.619Z,74.52
2018-08-25T03:34:23.586Z,75.64
2018-08-25T03:35:23.569Z,74.41
2018-08-25T03:36:23.565Z,74.32
2018-08-25T03:37:23.545Z,73.10
2018-08-25T03:38:23.562Z,74.32
2018-08-25T03:39:23.525Z,74.21
2018-08-25T03:40:23.517Z,75.74
2018-08-25T03:41:23.495Z,77.61
2018-08-25T03:42:23.489Z,79.54
2018-08-25T03:43:23.500Z,78.73
2018-08-25T03:44:23.469Z,81.21
2018-08-25T03:45:23.451Z,83.65
2018-08-25T03:46:23.446Z,85.13
2018-08-25T03:47:23.424Z,86.04
2018-08-25T03:48:23.444Z,86.65
2018-08-25T03:49:23.400Z,86.18
2018-08-25T03:50:23.397Z,87.20
2018-08-25T03:51:23.378Z,87.41
2018-08-25T03:52:23.370Z,86.90
2018-08-25T03:53:23.378Z,88.32
2018-08-25T03:54:23.346Z,89.08
2018-08-25T03:55:23.343Z,90.31
2018-08-25T03:56:23.321Z,91.02
2018-08-25T03:57:23.311Z,91.37
2018-08-25T03:58:23.321Z,91.47
2018-08-25T03:59:23.279Z,92.08
2018-08-25T04:00:23.278Z,93.25
2018-08-25T04:01:23.266Z,93.66
2018-08-25T04:02:23.252Z,93.25
2018-08-25T04:03:23.263Z,93.55
2018-08-25T04:04:23.222Z,93.91
2018-08-25T04:05:23.212Z,94.37
2018-08-25T04:06:23.202Z,95.23
2018-08-25T04:07:23.185Z,95.03
2018-08-25T04:08:23.204Z,94.62
2018-08-25T04:09:23.167Z,95.54
2018-08-25T04:10:23.150Z,95.44
2018-08-25T04:11:23.142Z,95.85
2018-08-25T04:12:23.133Z,95.85
2018-08-25T04:13:23.137Z,95.95
2018-08-25T04:14:23.107Z,96.56
2018-08-25T04:15:23.091Z,96.36
2018-08-25T04:16:23.083Z,96.56
2018-08-25T04:17:23.073Z,96.87
2018-08-25T04:18:23.075Z,96.56
2018-08-25T04:19:23.040Z,96.36
2018-08-25T04:20:23.035Z,96.77
2018-08-25T04:21:23.021Z,96.15
2018-08-25T04:22:23.164Z,96.67
2018-08-25T04:23:23.024Z,96.87
2018-08-25T04:24:22.978Z,96.92
2018-08-25T04:25:22.970Z,96.30
2018-08-25T04:26:22.964Z,96.71
2018-08-25T04:27:22.945Z,96.67
2018-08-25T04:28:22.960Z,97.22
2018-08-25T04:29:22.928Z,97.17
2018-08-25T04:30:22.906Z,97.02
2018-08-25T04:31:22.900Z,97.63
2018-08-25T04:32:22.885Z,97.58
2018-08-25T04:33:22.921Z,97.38
2018-08-25T04:34:22.868Z,97.58
2018-08-25T04:35:22.848Z,97.28
2018-08-25T04:36:22.845Z,97.83
2018-08-25T04:37:22.824Z,97.42
2018-08-25T04:38:22.820Z,97.22
2018-08-25T04:39:22.833Z,97.63
2018-08-25T04:40:22.788Z,97.22
2018-08-25T04:41:22.898Z,97.63
2018-08-25T04:42:22.767Z,97.74
2018-08-25T04:43:22.762Z,97.74
2018-08-25T04:44:22.772Z,97.33
2018-08-25T04:45:22.735Z,97.33
2018-08-25T04:46:22.723Z,97.63
2018-08-25T04:47:22.722Z,97.74
2018-08-25T04:48:22.698Z,97.12
2018-08-25T04:49:22.704Z,97.79
2018-08-25T04:50:22.670Z,97.63
2018-08-25T04:51:22.667Z,97.63
2018-08-25T04:52:22.645Z,97.42
2018-08-25T04:53:22.638Z,97.63
2018-08-25T04:54:22.657Z,97.08
2018-08-25T04:55:22.612Z,97.02
2018-08-25T04:56:22.608Z,96.87
2018-08-25T04:57:22.592Z,97.33
2018-08-25T04:58:22.578Z,97.17
2018-08-25T04:59:22.587Z,97.08
2018-08-25T05:00:22.555Z,97.69
2018-08-25T05:01:22.540Z,97.17
2018-08-25T05:02:22.538Z,97.33
2018-08-25T05:03:22.517Z,97.12
2018-08-25T05:04:22.535Z,97.42
2018-08-25T05:05:22.497Z,97.42
2018-08-25T05:06:22.482Z,97.17
2018-08-25T05:07:22.475Z,97.33
2018-08-25T05:08:22.462Z,97.74
2018-08-25T05:09:22.475Z,97.63
2018-08-25T05:10:22.437Z,97.53
2018-08-25T05:11:22.432Z,97.63
2018-08-25T05:12:22.412Z,97.63
2018-08-25T05:13:22.407Z,97.33
2018-08-25T05:14:22.419Z,97.89
2018-08-25T05:15:22.381Z,98.20
2018-08-25T05:16:22.365Z,98.14
2018-08-25T05:17:22.357Z,97.79
2018-08-25T05:18:22.347Z,98.55
2018-08-25T05:19:22.368Z,98.65
2018-08-25T05:20:22.324Z,97.99
2018-08-25T05:21:22.308Z,98.35
2018-08-25T05:22:22.304Z,97.83
2018-08-25T05:23:22.288Z,97.89
2018-08-25T05:24:22.278Z,98.45
2018-08-25T05:25:22.289Z,98.20
2018-08-25T05:26:22.256Z,98.14
2018-08-25T05:27:22.238Z,98.20
2018-08-25T05:28:22.234Z,98.35
2018-08-25T05:29:22.215Z,98.75
2018-08-25T05:30:22.236Z,99.06
2018-08-25T05:31:22.197Z,99.02
2018-08-25T05:32:22.189Z,98.45
2018-08-25T05:33:22.174Z,98.75
2018-08-25T05:34:22.164Z,99.06
2018-08-25T05:35:22.173Z,98.75
2018-08-25T05:36:22.138Z,98.65
2018-08-25T05:37:22.128Z,98.55
2018-08-25T05:38:22.107Z,98.86
2018-08-25T05:39:22.101Z,98.75
2018-08-25T05:40:22.108Z,98.71
2018-08-25T05:41:22.076Z,98.86
2018-08-25T05:42:22.061Z,98.40
2018-08-25T05:43:22.049Z,98.71
2018-08-25T05:44:22.128Z,98.86
2018-08-25T05:45:22.049Z,99.06
2018-08-25T05:46:22.017Z,98.55
2018-08-25T05:47:22.007Z,98.45
2018-08-25T05:48:21.993Z,98.75
2018-08-25T05:49:21.976Z,98.24
2018-08-25T05:50:21.993Z,98.20
2018-08-25T05:51:21.967Z,98.30
2018-08-25T05:52:21.944Z,98.81
2018-08-25T05:53:21.927Z,98.24
2018-08-25T05:54:21.918Z,98.20
2018-08-25T05:55:21.935Z,98.20
2018-08-25T05:56:21.891Z,98.24
2018-08-25T05:57:21.887Z,97.49
2018-08-25T05:58:21.865Z,97.49
2018-08-25T05:59:21.853Z,97.94
2018-08-25T06:00:21.874Z,97.74
2018-08-25T06:01:21.829Z,97.99
2018-08-25T06:02:21.829Z,97.58
2018-08-25T06:03:21.806Z,97.08
2018-08-25T06:04:21.849Z,96.87
2018-08-25T06:05:21.805Z,97.28
2018-08-25T06:06:21.779Z,97.17
2018-08-25T06:07:21.763Z,97.08
2018-08-25T06:08:21.757Z,97.49
2018-08-25T06:09:21.740Z,96.97
2018-08-25T06:10:21.756Z,97.49
2018-08-25T06:11:21.711Z,97.69
2018-08-25T06:12:21.707Z,97.38
2018-08-25T06:13:21.827Z,97.38
2018-08-25T06:14:21.685Z,97.08
2018-08-25T06:15:21.671Z,97.24
2018-08-25T06:16:21.683Z,97.28
2018-08-25T06:17:21.643Z,96.72
2018-08-25T06:18:21.636Z,97.13
2018-08-25T06:19:21.688Z,97.13
2018-08-25T06:20:21.606Z,96.51
2018-08-25T06:21:21.621Z,96.21
2018-08-25T06:22:21.582Z,96.31
2018-08-25T06:23:21.576Z,96.51
2018-08-25T06:24:21.581Z,96.47
2018-08-25T06:25:21.547Z,96.42
2018-08-25T06:26:21.568Z,96.37
2018-08-25T06:27:21.533Z,96.37
2018-08-25T06:28:21.512Z,96.63
2018-08-25T06:29:21.508Z,94.74
2018-08-25T06:30:21.494Z,95.51
2018-08-25T06:31:21.504Z,94.12
2018-08-25T06:32:21.469Z,94.94
2018-08-25T06:33:21.500Z,95.51
2018-08-25T06:34:21.476Z,95.51
2018-08-25T06:35:21.436Z,95.72
2018-08-25T06:36:21.444Z,95.72
2018-08-25T06:37:21.414Z,95.31
2018-08-25T06:38:21.404Z,96.12
2018-08-25T06:39:21.396Z,95.31
2018-08-25T06:40:21.380Z,95.41
2018-08-25T06:41:21.394Z,94.65
2018-08-25T06:42:21.350Z,94.85
2018-08-25T06:43:21.457Z,94.95
2018-08-25T06:44:21.330Z,94.85
2018-08-25T06:45:21.313Z,94.08
2018-08-25T06:46:21.335Z,94.34
2018-08-25T06:47:21.339Z,93.43
2018-08-25T06:48:21.294Z,93.73
2018-08-25T06:49:21.289Z,92.91
2018-08-25T06:50:21.255Z,93.12
2018-08-25T06:51:21.459Z,92.96
2018-08-25T06:52:21.232Z,93.37
2018-08-25T06:53:21.258Z,94.08
2018-08-25T06:54:21.215Z,94.59
2018-08-25T06:55:21.197Z,91.22
2018-08-25T06:56:21.216Z,92.24
2018-08-25T06:57:21.180Z,92.96
2018-08-25T06:58:21.165Z,93.06
2018-08-25T06:59:21.173Z,92.86
2018-08-25T07:00:21.147Z,93.26
2018-08-25T07:01:21.172Z,93.88
2018-08-25T07:02:21.119Z,93.26
2018-08-25T07:03:21.110Z,93.47
2018-08-25T07:04:21.099Z,93.77
2018-08-25T07:05:21.081Z,93.16
2018-08-25T07:06:21.139Z,93.67
2018-08-25T07:07:21.081Z,92.24
2018-08-25T07:08:21.055Z,92.86
2018-08-25T07:09:21.040Z,91.02
2018-08-25T07:10:21.032Z,90.71
2018-08-25T07:11:21.019Z,91.74
2018-08-25T07:12:21.020Z,92.86
2018-08-25T07:13:20.990Z,93.16
2018-08-25T07:14:21.008Z,93.26
2018-08-25T07:15:20.965Z,92.45
2018-08-25T07:16:20.962Z,91.59
2018-08-25T07:17:20.964Z,91.79
2018-08-25T07:18:20.939Z,91.18
2018-08-25T07:19:20.922Z,89.45
2018-08-25T07:20:20.911Z,88.12
2018-08-25T07:21:20.900Z,89.81
2018-08-25T07:22:20.938Z,90.42
2018-08-25T07:23:20.935Z,91.55
2018-08-25T07:24:20.866Z,90.22
2018-08-25T07:25:20.854Z,90.32
2018-08-25T07:26:20.993Z,88.39
2018-08-25T07:27:20.983Z,89.40
2018-08-25T07:28:20.895Z,89.71
2018-08-25T07:29:20.801Z,88.90
2018-08-25T07:30:20.797Z,86.65
2018-08-25T07:31:20.814Z,87.06
2018-08-25T07:32:20.840Z,87.37
2018-08-25T07:33:20.753Z,86.76
2018-08-25T07:34:20.745Z,88.28
2018-08-25T07:35:20.776Z,88.79
2018-08-25T07:36:20.800Z,89.92
2018-08-25T07:37:20.860Z,87.98
2018-08-25T07:38:20.722Z,89.30
2018-08-25T07:39:20.687Z,86.55
2018-08-25T07:40:20.680Z,88.18
2018-08-25T07:41:20.662Z,87.37
2018-08-25T07:42:20.677Z,87.23
2018-08-25T07:43:20.664Z,86.51
2018-08-25T07:44:20.688Z,86.24
2018-08-25T07:45:20.670Z,87.12
2018-08-25T07:46:20.662Z,87.73
2018-08-25T07:47:20.755Z,86.41
2018-08-25T07:48:20.664Z,86.88
2018-08-25T07:49:20.569Z,85.96
2018-08-25T07:50:20.554Z,83.72
2018-08-25T07:51:20.595Z,84.94
2018-08-25T07:52:20.549Z,86.68
2018-08-25T07:53:20.517Z,88.51
2018-08-25T07:54:20.507Z,89.53
2018-08-25T07:55:20.498Z,89.26
2018-08-25T07:56:20.481Z,87.08
2018-08-25T07:57:20.554Z,87.79
2018-08-25T07:58:20.516Z,88.55
2018-08-25T07:59:20.586Z,89.87
2018-08-25T08:00:20.440Z,90.53
2018-08-25T08:01:20.486Z,89.51
2018-08-25T08:02:20.434Z,89.81
2018-08-25T08:03:20.406Z,89.61
2018-08-25T08:04:20.420Z,91.14
2018-08-25T08:05:20.472Z,91.30
2018-08-25T08:06:20.362Z,92.83
2018-08-25T08:07:20.374Z,93.54
2018-08-25T08:08:20.345Z,93.09
2018-08-25T08:09:20.348Z,88.81
2018-08-25T08:10:20.323Z,88.87
2018-08-25T08:11:20.302Z,87.49
2018-08-25T08:12:20.411Z,88.67
2018-08-25T08:13:20.285Z,86.02
2018-08-25T08:14:20.269Z,87.79
2018-08-25T08:15:20.266Z,87.24
2018-08-25T08:16:20.256Z,88.57
2018-08-25T08:17:20.236Z,88.73
2018-08-25T08:18:20.252Z,88.79
2018-08-25T08:19:20.212Z,87.93
2018-08-25T08:20:20.198Z,89.01
2018-08-25T08:21:20.190Z,88.16
2018-08-25T08:22:20.176Z,85.41
2018-08-25T08:23:20.196Z,82.33
2018-08-25T08:24:20.150Z,82.94
2018-08-25T08:25:20.146Z,77.72
2018-08-25T08:26:20.132Z,79.96
2018-08-25T08:27:20.124Z,78.91
2018-08-25T08:28:20.131Z,79.65
2018-08-25T08:29:20.100Z,78.09
2018-08-25T08:30:20.087Z,78.30
2018-08-25T08:31:20.066Z,80.77
2018-08-25T08:32:20.144Z,80.83
2018-08-25T08:33:20.142Z,76.67
2018-08-25T08:34:20.099Z,76.37
2018-08-25T08:35:20.026Z,72.28
2018-08-25T08:36:20.015Z,75.93
2018-08-25T08:37:20.056Z,73.19
2018-08-25T08:38:20.054Z,77.92
2018-08-25T08:39:20.001Z,76.60
2018-08-25T08:40:19.968Z,72.34
2018-08-25T08:41:19.993Z,69.07
2018-08-25T08:42:19.999Z,70.29
2018-08-25T08:43:19.930Z,71.09
2018-08-25T08:44:19.940Z,70.08
2018-08-25T08:45:19.945Z,68.77
2018-08-25T08:46:19.956Z,68.16
2018-08-25T08:47:19.922Z,69.92
2018-08-25T08:48:19.873Z,72.34
2018-08-25T08:49:19.997Z,71.06
2018-08-25T08:50:19.895Z,71.88
2018-08-25T08:51:19.838Z,69.95
2018-08-25T08:52:19.825Z,73.33
2018-08-25T08:53:19.808Z,70.42
2018-08-25T08:54:19.829Z,71.03
2018-08-25T08:55:19.787Z,71.23
2018-08-25T08:56:19.779Z,70.35
2018-08-25T08:57:19.772Z,73.19
2018-08-25T08:58:19.853Z,74.31
2018-08-25T08:59:19.765Z,73.43
2018-08-25T09:00:19.736Z,73.83
2018-08-25T09:01:19.719Z,75.36
2018-08-25T09:02:19.704Z,72.21
2018-08-25T09:03:19.762Z,76.01
2018-08-25T09:04:19.710Z,74.55
2018-08-25T09:05:19.674Z,76.58
2018-08-25T09:06:19.659Z,76.88
2018-08-25T09:07:19.655Z,75.67
2018-08-25T09:08:19.634Z,74.75
2018-08-25T09:09:19.653Z,74.04
2018-08-25T09:10:19.610Z,76.37
2018-08-25T09:11:19.627Z,73.13
2018-08-25T09:12:19.596Z,74.24
2018-08-25T09:13:19.576Z,74.28
2018-08-25T09:14:19.595Z,74.58
2018-08-25T09:15:19.553Z,76.92
2018-08-25T09:16:19.601Z,76.92
2018-08-25T09:17:19.614Z,77.97
2018-08-25T09:18:19.524Z,78.28
2018-08-25T09:19:19.554Z,80.11
2018-08-25T09:20:19.498Z,79.53
2018-08-25T09:21:19.485Z,80.55
2018-08-25T09:22:19.480Z,77.50
2018-08-25T09:23:19.463Z,78.38
2018-08-25T09:24:19.448Z,79.39
2018-08-25T09:25:19.753Z,81.23
2018-08-25T09:26:19.486Z,80.17
2018-08-25T09:27:19.470Z,79.52
2018-08-25T09:28:19.404Z,77.59
2018-08-25T09:29:19.398Z,78.20
2018-08-25T09:30:19.407Z,76.75
2018-08-25T09:31:19.372Z,76.24
2018-08-25T09:32:19.353Z,74.68
2018-08-25T09:33:19.407Z,76.10
2018-08-25T09:34:19.334Z,74.14
2018-08-25T09:35:19.337Z,74.65
2018-08-25T09:36:19.358Z,73.49
2018-08-25T09:37:19.341Z,73.49
2018-08-25T09:38:19.280Z,73.05
2018-08-25T09:39:19.278Z,69.92
2018-08-25T09:40:19.289Z,70.21
2018-08-25T09:41:19.248Z,72.75
2018-08-25T09:42:19.240Z,71.64
2018-08-25T09:43:19.223Z,70.49
2018-08-25T09:44:19.219Z,71.30
2018-08-25T09:45:19.229Z,70.08
2018-08-25T09:46:19.192Z,69.20
2018-08-25T09:47:19.181Z,67.99
2018-08-25T09:48:19.169Z,70.42
2018-08-25T09:49:19.153Z,68.90
2018-08-25T09:50:19.174Z,68.80
2018-08-25T09:51:19.132Z,70.01
2018-08-25T09:52:19.123Z,70.76
2018-08-25T09:53:19.123Z,70.12
2018-08-25T09:54:19.096Z,70.42
2018-08-25T09:55:19.110Z,69.34
2018-08-25T09:56:19.072Z,67.38
2018-08-25T09:57:19.062Z,70.05
2018-08-25T09:58:19.055Z,69.95
2018-08-25T09:59:19.038Z,70.96
2018-08-25T10:00:19.052Z,69.44
2018-08-25T10:01:19.021Z,69.24
2018-08-25T10:02:19.005Z,67.82
2018-08-25T10:03:18.996Z,69.20
2018-08-25T10:04:18.976Z,69.61
2018-08-25T10:05:19.046Z,68.90
2018-08-25T10:06:18.958Z,67.99
2018-08-25T10:07:18.946Z,67.38
2018-08-25T10:08:18.932Z,67.38
2018-08-25T10:09:18.916Z,66.67
2018-08-25T10:10:18.935Z,66.94
2018-08-25T10:11:18.901Z,64.54
2018-08-25T10:12:18.882Z,66.54
2018-08-25T10:13:18.877Z,66.13
2018-08-25T10:14:18.857Z,65.62
2018-08-25T10:15:18.872Z,65.12
2018-08-25T10:16:18.843Z,66.03
2018-08-25T10:17:18.822Z,67.14
2018-08-25T10:18:18.819Z,66.64
2018-08-25T10:19:18.804Z,67.45
2018-08-25T10:20:18.811Z,67.62
2018-08-25T10:21:18.789Z,67.32
2018-08-25T10:22:18.776Z,67.29
2018-08-25T10:23:18.790Z,65.43
2018-08-25T10:24:18.741Z,65.20
2018-08-25T10:25:18.763Z,64.97
2018-08-25T10:26:18.744Z,64.13
2018-08-25T10:27:18.711Z,61.47
2018-08-25T10:28:18.697Z,61.95
2018-08-25T10:29:18.681Z,62.83
2018-08-25T10:30:18.682Z,59.07
2018-08-25T10:31:18.686Z,61.39
2018-08-25T10:32:18.651Z,60.78
2018-08-25T10:33:18.644Z,59.67
2018-08-25T10:34:18.622Z,59.27
2018-08-25T10:35:18.613Z,60.68
2018-08-25T10:36:18.832Z,58.19
2018-08-25T10:37:18.596Z,58.72
2018-08-25T10:38:18.575Z,60.87
2018-08-25T10:39:18.581Z,59.35
2018-08-25T10:40:18.555Z,59.78
2018-08-25T10:41:18.564Z,60.60
2018-08-25T10:42:19.564Z,61.10
2018-08-25T10:43:18.529Z,61.33
2018-08-25T10:44:18.547Z,61.03
2018-08-25T10:45:18.497Z,62.74
2018-08-25T10:46:18.512Z,62.14
2018-08-25T10:47:18.469Z,62.14
2018-08-25T10:48:18.468Z,61.83
2018-08-25T10:49:18.455Z,62.14
2018-08-25T10:50:18.437Z,61.53
2018-08-25T10:51:18.456Z,62.04
2018-08-25T10:52:18.414Z,62.74
2018-08-25T10:53:18.407Z,62.04
2018-08-25T10:54:18.391Z,62.64
2018-08-25T10:55:18.380Z,60.93
2018-08-25T10:56:18.392Z,62.64
2018-08-25T10:57:18.355Z,60.62
2018-08-25T10:58:18.352Z,61.71
2018-08-25T10:59:18.333Z,62.21
2018-08-25T11:00:18.379Z,61.60
2018-08-25T11:01:18.388Z,58.65
2018-08-25T11:02:18.297Z,60.97
2018-08-25T11:03:18.284Z,60.87
2018-08-25T11:04:18.277Z,61.01
2018-08-25T11:05:18.262Z,61.29
2018-08-25T11:06:18.280Z,61.03
2018-08-25T11:07:18.238Z,58.11
2018-08-25T11:08:18.230Z,56.97
2018-08-25T11:09:18.220Z,57.62
2018-08-25T11:10:18.209Z,58.20
2018-08-25T11:11:18.220Z,57.19
2018-08-25T11:12:18.178Z,56.19
2018-08-25T11:13:18.174Z,56.56
2018-08-25T11:14:18.159Z,53.17
2018-08-25T11:15:18.153Z,56.59
2018-08-25T11:16:18.161Z,56.19
2018-08-25T11:17:18.129Z,54.91
2018-08-25T11:18:18.108Z,52.89
2018-08-25T11:19:18.098Z,56.34
2018-08-25T11:20:18.095Z,57.55
2018-08-25T11:21:18.097Z,57.42
2018-08-25T11:22:18.071Z,56.11
2018-08-25T11:23:18.052Z,54.98
2018-08-25T11:24:18.049Z,53.85
2018-08-25T11:25:18.035Z,53.65
2018-08-25T11:26:18.049Z,55.55
2018-08-25T11:27:18.009Z,55.43
2018-08-25T11:28:17.994Z,54.45
2018-08-25T11:29:18.063Z,51.51
2018-08-25T11:30:17.970Z,53.85
2018-08-25T11:31:17.982Z,55.28
2018-08-25T11:32:17.956Z,54.98
2018-08-25T11:33:17.942Z,53.40
2018-08-25T11:34:17.929Z,55.74
2018-08-25T11:35:17.922Z,56.77
2018-08-25T11:36:17.923Z,57.30
2018-08-25T11:37:17.982Z,57.63
2018-08-25T11:38:17.883Z,58.26
2018-08-25T11:39:17.869Z,57.76
2018-08-25T11:40:17.853Z,59.30
2018-08-25T11:41:17.885Z,58.89
2018-08-25T11:42:17.830Z,60.41
2018-08-25T11:43:17.826Z,59.12
2018-08-25T11:44:17.808Z,60.33
2018-08-25T11:45:17.797Z,60.77
2018-08-25T11:46:17.785Z,60.36
2018-08-25T11:47:17.798Z,60.66
2018-08-25T11:48:17.767Z,60.89
2018-08-25T11:49:17.757Z,62.01
2018-08-25T11:50:17.737Z,63.62
2018-08-25T11:51:17.732Z,67.09
2018-08-25T11:52:17.743Z,71.64
2018-08-25T11:53:17.701Z,71.80
2018-08-25T11:54:17.699Z,71.80
2018-08-25T11:55:17.677Z,72.95
2018-08-25T11:56:17.668Z,72.95
2018-08-25T11:57:17.684Z,75.62
2018-08-25T11:58:17.645Z,75.62
2018-08-25T11:59:17.649Z,75.25
2018-08-25T12:00:17.619Z,73.02
2018-08-25T12:01:17.607Z,73.36
2018-08-25T12:02:17.685Z,74.54
2018-08-25T12:03:17.608Z,74.64
2018-08-25T12:04:17.575Z,74.57
2018-08-25T12:05:17.566Z,74.24
2018-08-25T12:06:17.551Z,73.93
2018-08-25T12:07:17.562Z,75.65
2018-08-25T12:08:17.531Z,75.25
2018-08-25T12:09:17.514Z,75.35
2018-08-25T12:10:17.512Z,76.06
2018-08-25T12:11:17.498Z,73.80
2018-08-25T12:12:17.498Z,72.88
2018-08-25T12:13:17.467Z,74.10
2018-08-25T12:14:17.454Z,74.20
2018-08-25T12:15:17.452Z,74.16
2018-08-25T12:16:17.454Z,72.85
2018-08-25T12:17:17.441Z,73.86
2018-08-25T12:18:17.414Z,74.84
2018-08-25T12:19:17.404Z,75.10
2018-08-25T12:20:17.383Z,72.75
2018-08-25T12:21:17.381Z,72.31
2018-08-25T12:22:17.384Z,70.22
2018-08-25T12:23:17.348Z,70.29
2018-08-25T12:24:17.345Z,68.91
2018-08-25T12:25:17.325Z,68.68
2018-08-25T12:26:17.321Z,63.59
2018-08-25T12:27:17.325Z,65.23
2018-08-25T12:28:17.300Z,62.59
2018-08-25T12:29:17.279Z,63.23
2018-08-25T12:30:17.275Z,60.93
2018-08-25T12:31:17.258Z,60.22
2018-08-25T12:32:17.268Z,60.10
2018-08-25T12:33:17.239Z,60.02
2018-08-25T12:34:17.229Z,59.42
2018-08-25T12:35:17.210Z,56.51
2018-08-25T12:36:17.207Z,60.32
2018-08-25T12:37:17.218Z,57.54
2018-08-25T12:38:17.178Z,60.42
2018-08-25T12:39:17.202Z,60.32
2018-08-25T12:40:17.154Z,59.39
2018-08-25T12:41:17.144Z,60.19
2018-08-25T12:42:17.159Z,60.06
2018-08-25T12:43:17.244Z,58.63
2018-08-25T12:44:17.114Z,57.40
2018-08-25T12:45:17.099Z,54.67
2018-08-25T12:46:17.086Z,55.94
2018-08-25T12:47:17.101Z,55.72
2018-08-25T12:48:17.071Z,51.09
2018-08-25T12:49:17.051Z,52.77
2018-08-25T12:50:17.051Z,50.15
2018-08-25T12:51:17.032Z,51.04
2018-08-25T12:52:17.048Z,49.65